sensor_id;sensor_type;location;lat;lon;timestamp;temperature;humidity
11762;DHT22;5938;47.098;15.474;2023-08-07T00:03:37;10.40;99.90
11762;DHT22;5938;47.098;15.474;2023-08-07T00:07:41;10.40;99.90
11762;DHT22;5938;47.098;15.474;2023-08-07T00:11:46;10.40;99.90
11762;DHT22;5938;47.098;15.474;2023-08-07T00:15:52;10.40;99.90
11762;DHT22;5938;47.098;15.474;2023-08-07T00:19:56;10.40;99.90
11762;DHT22;5938;47.098;15.474;2023-08-07T00:23:59;10.50;99.90
11762;DHT22;5938;47.098;15.474;2023-08-07T00:28:03;10.50;99.90
11762;DHT22;5938;47.098;15.474;2023-08-07T00:32:08;10.50;99.90
11762;DHT22;5938;47.098;15.474;2023-08-07T00:36:12;10.60;99.90
11762;DHT22;5938;47.098;15.474;2023-08-07T00:40:17;10.60;99.90
11762;DHT22;5938;47.098;15.474;2023-08-07T00:44:21;10.60;99.90
11762;DHT22;5938;47.098;15.474;2023-08-07T00:48:27;10.70;99.90
11762;DHT22;5938;47.098;15.474;2023-08-07T00:52:32;10.60;99.90
11762;DHT22;5938;47.098;15.474;2023-08-07T00:56:37;10.60;99.90
11762;DHT22;5938;47.098;15.474;2023-08-07T01:00:41;10.50;99.90
11762;DHT22;5938;47.098;15.474;2023-08-07T01:04:46;10.40;99.90
11762;DHT22;5938;47.098;15.474;2023-08-07T01:08:50;10.30;99.90
11762;DHT22;5938;47.098;15.474;2023-08-07T01:13:00;10.20;99.90
11762;DHT22;5938;47.098;15.474;2023-08-07T01:17:10;10.10;99.90
11762;DHT22;5938;47.098;15.474;2023-08-07T01:21:21;10.00;99.90
11762;DHT22;5938;47.098;15.474;2023-08-07T01:25:26;10.00;99.90
11762;DHT22;5938;47.098;15.474;2023-08-07T01:29:35;10.00;99.90
11762;DHT22;5938;47.098;15.474;2023-08-07T01:33:46;9.90;99.90
11762;DHT22;5938;47.098;15.474;2023-08-07T01:37:54;9.80;99.90
11762;DHT22;5938;47.098;15.474;2023-08-07T01:42:00;9.70;99.90
11762;DHT22;5938;47.098;15.474;2023-08-07T01:46:05;9.60;99.90
11762;DHT22;5938;47.098;15.474;2023-08-07T01:50:09;9.60;99.90
11762;DHT22;5938;47.098;15.474;2023-08-07T01:54:12;9.40;99.90
11762;DHT22;5938;47.098;15.474;2023-08-07T01:58:18;9.40;99.90
11762;DHT22;5938;47.098;15.474;2023-08-07T02:02:26;9.40;99.90
11762;DHT22;5938;47.098;15.474;2023-08-07T02:06:29;9.30;99.90
11762;DHT22;5938;47.098;15.474;2023-08-07T02:10:33;9.20;99.90
11762;DHT22;5938;47.098;15.474;2023-08-07T02:14:39;9.20;99.90
11762;DHT22;5938;47.098;15.474;2023-08-07T02:18:42;9.10;99.90
11762;DHT22;5938;47.098;15.474;2023-08-07T02:22:46;9.00;99.90
11762;DHT22;5938;47.098;15.474;2023-08-07T02:26:50;9.00;99.90
11762;DHT22;5938;47.098;15.474;2023-08-07T02:30:55;9.00;99.90
11762;DHT22;5938;47.098;15.474;2023-08-07T02:34:58;8.90;99.90
11762;DHT22;5938;47.098;15.474;2023-08-07T02:39:02;8.90;99.90
11762;DHT22;5938;47.098;15.474;2023-08-07T02:43:07;8.90;99.90
11762;DHT22;5938;47.098;15.474;2023-08-07T02:47:12;8.90;99.90
11762;DHT22;5938;47.098;15.474;2023-08-07T02:51:15;8.80;99.90
11762;DHT22;5938;47.098;15.474;2023-08-07T02:55:19;8.70;99.90
11762;DHT22;5938;47.098;15.474;2023-08-07T02:59:23;8.70;99.90
11762;DHT22;5938;47.098;15.474;2023-08-07T03:03:28;8.70;99.90
11762;DHT22;5938;47.098;15.474;2023-08-07T03:07:31;8.60;99.90
11762;DHT22;5938;47.098;15.474;2023-08-07T03:11:35;8.50;99.90
11762;DHT22;5938;47.098;15.474;2023-08-07T03:15:39;8.50;99.90
11762;DHT22;5938;47.098;15.474;2023-08-07T03:19:44;8.60;99.90
11762;DHT22;5938;47.098;15.474;2023-08-07T03:23:48;8.60;99.90
11762;DHT22;5938;47.098;15.474;2023-08-07T03:27:52;8.60;99.90
11762;DHT22;5938;47.098;15.474;2023-08-07T03:31:56;8.70;99.90
11762;DHT22;5938;47.098;15.474;2023-08-07T03:36:01;8.80;99.90
11762;DHT22;5938;47.098;15.474;2023-08-07T03:40:06;8.90;99.90
11762;DHT22;5938;47.098;15.474;2023-08-07T03:44:09;8.90;99.90
11762;DHT22;5938;47.098;15.474;2023-08-07T03:48:13;9.00;99.90
11762;DHT22;5938;47.098;15.474;2023-08-07T03:52:18;9.00;99.90
11762;DHT22;5938;47.098;15.474;2023-08-07T03:56:22;9.00;99.90
11762;DHT22;5938;47.098;15.474;2023-08-07T04:00:26;9.10;99.90
11762;DHT22;5938;47.098;15.474;2023-08-07T04:04:30;9.20;99.90
11762;DHT22;5938;47.098;15.474;2023-08-07T04:08:35;9.20;99.90
11762;DHT22;5938;47.098;15.474;2023-08-07T04:12:39;9.20;99.90
11762;DHT22;5938;47.098;15.474;2023-08-07T04:16:42;9.40;99.90
11762;DHT22;5938;47.098;15.474;2023-08-07T04:20:49;9.40;99.90
11762;DHT22;5938;47.098;15.474;2023-08-07T04:24:54;9.40;99.90
11762;DHT22;5938;47.098;15.474;2023-08-07T04:28:58;9.40;99.90
11762;DHT22;5938;47.098;15.474;2023-08-07T04:33:02;9.50;99.90
11762;DHT22;5938;47.098;15.474;2023-08-07T04:37:07;9.60;99.90
11762;DHT22;5938;47.098;15.474;2023-08-07T04:41:13;9.80;99.90
11762;DHT22;5938;47.098;15.474;2023-08-07T04:45:16;9.90;99.90
11762;DHT22;5938;47.098;15.474;2023-08-07T04:49:20;10.10;99.90
11762;DHT22;5938;47.098;15.474;2023-08-07T04:53:23;10.20;99.90
11762;DHT22;5938;47.098;15.474;2023-08-07T04:57:29;10.30;99.90
11762;DHT22;5938;47.098;15.474;2023-08-07T05:01:32;10.50;99.90
11762;DHT22;5938;47.098;15.474;2023-08-07T05:05:36;10.70;99.90
11762;DHT22;5938;47.098;15.474;2023-08-07T05:09:41;10.90;99.90
11762;DHT22;5938;47.098;15.474;2023-08-07T05:13:46;11.10;99.90
11762;DHT22;5938;47.098;15.474;2023-08-07T05:17:50;11.30;99.90
11762;DHT22;5938;47.098;15.474;2023-08-07T05:21:54;11.40;99.90
11762;DHT22;5938;47.098;15.474;2023-08-07T05:25:58;11.70;99.90
11762;DHT22;5938;47.098;15.474;2023-08-07T05:30:06;12.00;99.90
11762;DHT22;5938;47.098;15.474;2023-08-07T05:34:09;12.00;99.90
11762;DHT22;5938;47.098;15.474;2023-08-07T05:38:13;12.20;99.90
11762;DHT22;5938;47.098;15.474;2023-08-07T05:42:17;12.30;99.90
11762;DHT22;5938;47.098;15.474;2023-08-07T05:46:22;12.70;99.90
11762;DHT22;5938;47.098;15.474;2023-08-07T05:50:25;12.80;99.90
11762;DHT22;5938;47.098;15.474;2023-08-07T05:54:29;13.00;99.90
11762;DHT22;5938;47.098;15.474;2023-08-07T05:58:33;13.20;99.90
11762;DHT22;5938;47.098;15.474;2023-08-07T06:02:39;13.40;99.90
11762;DHT22;5938;47.098;15.474;2023-08-07T06:06:43;13.60;99.90
11762;DHT22;5938;47.098;15.474;2023-08-07T06:10:48;13.60;99.90
11762;DHT22;5938;47.098;15.474;2023-08-07T06:14:52;13.70;99.90
11762;DHT22;5938;47.098;15.474;2023-08-07T06:18:56;14.10;99.90
11762;DHT22;5938;47.098;15.474;2023-08-07T06:23:00;14.40;99.90
11762;DHT22;5938;47.098;15.474;2023-08-07T06:27:05;14.60;99.90
11762;DHT22;5938;47.098;15.474;2023-08-07T06:31:09;14.90;99.90
11762;DHT22;5938;47.098;15.474;2023-08-07T06:35:15;15.20;99.90
11762;DHT22;5938;47.098;15.474;2023-08-07T06:39:19;15.50;99.90
11762;DHT22;5938;47.098;15.474;2023-08-07T06:43:24;15.50;99.90
11762;DHT22;5938;47.098;15.474;2023-08-07T06:47:27;15.50;99.90
11762;DHT22;5938;47.098;15.474;2023-08-07T06:51:32;16.00;99.90
11762;DHT22;5938;47.098;15.474;2023-08-07T06:55:44;16.30;99.90
11762;DHT22;5938;47.098;15.474;2023-08-07T06:59:57;16.30;99.90
11762;DHT22;5938;47.098;15.474;2023-08-07T07:04:00;16.50;99.90
11762;DHT22;5938;47.098;15.474;2023-08-07T07:08:11;16.60;99.90
11762;DHT22;5938;47.098;15.474;2023-08-07T07:12:15;17.00;99.90
11762;DHT22;5938;47.098;15.474;2023-08-07T07:16:19;17.10;99.40
11762;DHT22;5938;47.098;15.474;2023-08-07T07:20:24;17.30;97.50
11762;DHT22;5938;47.098;15.474;2023-08-07T07:24:30;17.50;96.80
11762;DHT22;5938;47.098;15.474;2023-08-07T07:28:34;17.80;97.10
11762;DHT22;5938;47.098;15.474;2023-08-07T07:32:37;17.90;94.40
11762;DHT22;5938;47.098;15.474;2023-08-07T07:36:41;17.70;93.00
11762;DHT22;5938;47.098;15.474;2023-08-07T07:40:46;18.10;93.70
11762;DHT22;5938;47.098;15.474;2023-08-07T07:44:50;18.30;92.60
11762;DHT22;5938;47.098;15.474;2023-08-07T07:49:01;18.40;93.30
11762;DHT22;5938;47.098;15.474;2023-08-07T07:53:05;18.50;92.20
11762;DHT22;5938;47.098;15.474;2023-08-07T07:57:12;18.50;90.20
11762;DHT22;5938;47.098;15.474;2023-08-07T08:01:15;18.50;92.50
11762;DHT22;5938;47.098;15.474;2023-08-07T08:05:20;18.90;91.00
11762;DHT22;5938;47.098;15.474;2023-08-07T08:09:24;19.60;93.00
11762;DHT22;5938;47.098;15.474;2023-08-07T08:13:29;19.70;86.30
11762;DHT22;5938;47.098;15.474;2023-08-07T08:17:33;19.40;89.00
11762;DHT22;5938;47.098;15.474;2023-08-07T08:21:37;19.10;86.40
11762;DHT22;5938;47.098;15.474;2023-08-07T08:25:42;18.80;85.70
11762;DHT22;5938;47.098;15.474;2023-08-07T08:29:47;18.90;88.30
11762;DHT22;5938;47.098;15.474;2023-08-07T08:33:51;19.60;84.90
11762;DHT22;5938;47.098;15.474;2023-08-07T08:37:55;20.60;82.20
11762;DHT22;5938;47.098;15.474;2023-08-07T08:41:59;21.60;83.20
11762;DHT22;5938;47.098;15.474;2023-08-07T08:46:05;21.40;77.70
11762;DHT22;5938;47.098;15.474;2023-08-07T08:50:12;21.40;75.70
11762;DHT22;5938;47.098;15.474;2023-08-07T08:54:16;20.80;74.90
11762;DHT22;5938;47.098;15.474;2023-08-07T08:58:20;21.60;76.80
11762;DHT22;5938;47.098;15.474;2023-08-07T09:02:26;22.50;73.40
11762;DHT22;5938;47.098;15.474;2023-08-07T09:06:31;22.10;73.00
11762;DHT22;5938;47.098;15.474;2023-08-07T09:10:36;22.00;75.30
11762;DHT22;5938;47.098;15.474;2023-08-07T09:14:41;21.10;74.70
11762;DHT22;5938;47.098;15.474;2023-08-07T09:18:50;22.20;71.60
11762;DHT22;5938;47.098;15.474;2023-08-07T09:22:55;22.80;70.10
11762;DHT22;5938;47.098;15.474;2023-08-07T09:26:58;24.00;69.00
11762;DHT22;5938;47.098;15.474;2023-08-07T09:31:06;23.70;66.00
11762;DHT22;5938;47.098;15.474;2023-08-07T09:35:12;22.80;66.10
11762;DHT22;5938;47.098;15.474;2023-08-07T09:39:16;23.60;67.90
11762;DHT22;5938;47.098;15.474;2023-08-07T09:43:23;24.70;66.90
11762;DHT22;5938;47.098;15.474;2023-08-07T09:47:27;23.60;64.40
11762;DHT22;5938;47.098;15.474;2023-08-07T09:51:41;23.70;68.20
11762;DHT22;5938;47.098;15.474;2023-08-07T09:55:46;22.90;68.20
11762;DHT22;5938;47.098;15.474;2023-08-07T09:59:51;21.80;77.20
11762;DHT22;5938;47.098;15.474;2023-08-07T10:03:55;22.30;70.00
11762;DHT22;5938;47.098;15.474;2023-08-07T10:08:00;21.70;72.50
11762;DHT22;5938;47.098;15.474;2023-08-07T10:12:05;21.50;68.60
11762;DHT22;5938;47.098;15.474;2023-08-07T10:16:09;21.20;67.70
11762;DHT22;5938;47.098;15.474;2023-08-07T10:20:13;21.60;72.50
11762;DHT22;5938;47.098;15.474;2023-08-07T10:24:19;21.80;72.70
11762;DHT22;5938;47.098;15.474;2023-08-07T10:28:24;21.10;68.90
11762;DHT22;5938;47.098;15.474;2023-08-07T10:32:32;21.40;72.30
11762;DHT22;5938;47.098;15.474;2023-08-07T10:36:37;21.40;70.70
11762;DHT22;5938;47.098;15.474;2023-08-07T10:41:06;21.60;70.90
11762;DHT22;5938;47.098;15.474;2023-08-07T10:45:10;21.70;68.60
11762;DHT22;5938;47.098;15.474;2023-08-07T10:49:30;22.00;72.00
11762;DHT22;5938;47.098;15.474;2023-08-07T10:53:36;22.10;65.90
11762;DHT22;5938;47.098;15.474;2023-08-07T10:57:42;21.50;68.10
11762;DHT22;5938;47.098;15.474;2023-08-07T11:01:51;21.40;72.30
11762;DHT22;5938;47.098;15.474;2023-08-07T11:05:57;21.10;72.00
11762;DHT22;5938;47.098;15.474;2023-08-07T11:10:01;20.60;71.60
11762;DHT22;5938;47.098;15.474;2023-08-07T11:14:07;20.90;69.90
11762;DHT22;5938;47.098;15.474;2023-08-07T11:18:10;21.10;75.00
11762;DHT22;5938;47.098;15.474;2023-08-07T11:22:15;20.50;71.10
11762;DHT22;5938;47.098;15.474;2023-08-07T11:26:19;20.80;72.20
11762;DHT22;5938;47.098;15.474;2023-08-07T11:30:25;20.90;71.60
11762;DHT22;5938;47.098;15.474;2023-08-07T11:34:29;20.80;66.30
11762;DHT22;5938;47.098;15.474;2023-08-07T11:38:34;20.80;70.90
11762;DHT22;5938;47.098;15.474;2023-08-07T11:42:38;21.30;67.90
11762;DHT22;5938;47.098;15.474;2023-08-07T11:46:43;21.50;67.00
11762;DHT22;5938;47.098;15.474;2023-08-07T11:50:48;21.30;68.70
11762;DHT22;5938;47.098;15.474;2023-08-07T11:54:53;22.10;67.50
11762;DHT22;5938;47.098;15.474;2023-08-07T11:58:57;21.50;67.50
11762;DHT22;5938;47.098;15.474;2023-08-07T12:03:02;22.00;71.20
11762;DHT22;5938;47.098;15.474;2023-08-07T12:07:06;21.90;72.80
11762;DHT22;5938;47.098;15.474;2023-08-07T12:11:13;20.80;68.20
11762;DHT22;5938;47.098;15.474;2023-08-07T12:15:17;20.70;71.70
11762;DHT22;5938;47.098;15.474;2023-08-07T12:19:22;21.10;72.00
11762;DHT22;5938;47.098;15.474;2023-08-07T12:23:26;21.10;72.00
11762;DHT22;5938;47.098;15.474;2023-08-07T12:27:30;21.00;70.70
11762;DHT22;5938;47.098;15.474;2023-08-07T12:31:33;21.10;66.50
11762;DHT22;5938;47.098;15.474;2023-08-07T12:35:43;21.20;68.00
11762;DHT22;5938;47.098;15.474;2023-08-07T12:39:47;21.40;68.00
11762;DHT22;5938;47.098;15.474;2023-08-07T12:43:53;21.40;70.30
11762;DHT22;5938;47.098;15.474;2023-08-07T12:47:57;21.20;66.70
11762;DHT22;5938;47.098;15.474;2023-08-07T12:52:02;20.90;69.70
11762;DHT22;5938;47.098;15.474;2023-08-07T12:56:06;20.90;71.90
11762;DHT22;5938;47.098;15.474;2023-08-07T13:00:11;21.40;70.80
11762;DHT22;5938;47.098;15.474;2023-08-07T13:04:16;21.70;76.90
11762;DHT22;5938;47.098;15.474;2023-08-07T13:08:22;21.60;68.90
11762;DHT22;5938;47.098;15.474;2023-08-07T13:12:26;21.50;71.10
11762;DHT22;5938;47.098;15.474;2023-08-07T13:16:29;22.10;70.50
11762;DHT22;5938;47.098;15.474;2023-08-07T13:20:34;22.20;67.60
11762;DHT22;5938;47.098;15.474;2023-08-07T13:24:39;22.30;70.10
11762;DHT22;5938;47.098;15.474;2023-08-07T13:28:45;22.60;69.80
11762;DHT22;5938;47.098;15.474;2023-08-07T13:32:52;21.40;69.80
11762;DHT22;5938;47.098;15.474;2023-08-07T13:36:56;21.50;68.50
11762;DHT22;5938;47.098;15.474;2023-08-07T13:41:03;20.70;67.10
11762;DHT22;5938;47.098;15.474;2023-08-07T13:45:08;21.00;72.80
11762;DHT22;5938;47.098;15.474;2023-08-07T13:49:12;20.70;70.70
11762;DHT22;5938;47.098;15.474;2023-08-07T13:53:16;21.70;70.10
11762;DHT22;5938;47.098;15.474;2023-08-07T13:57:23;22.10;70.30
11762;DHT22;5938;47.098;15.474;2023-08-07T14:01:28;21.40;67.80
11762;DHT22;5938;47.098;15.474;2023-08-07T14:05:31;21.80;70.70
11762;DHT22;5938;47.098;15.474;2023-08-07T14:09:36;21.50;68.30
11762;DHT22;5938;47.098;15.474;2023-08-07T14:13:43;21.90;71.00
11762;DHT22;5938;47.098;15.474;2023-08-07T14:17:48;22.80;68.10
11762;DHT22;5938;47.098;15.474;2023-08-07T14:21:54;22.20;67.00
11762;DHT22;5938;47.098;15.474;2023-08-07T14:25:58;22.90;69.40
11762;DHT22;5938;47.098;15.474;2023-08-07T14:30:03;22.20;66.50
11762;DHT22;5938;47.098;15.474;2023-08-07T14:34:07;21.00;69.60
11762;DHT22;5938;47.098;15.474;2023-08-07T14:38:11;21.00;71.90
11762;DHT22;5938;47.098;15.474;2023-08-07T14:42:14;21.60;72.90
11762;DHT22;5938;47.098;15.474;2023-08-07T14:46:20;22.60;66.70
11762;DHT22;5938;47.098;15.474;2023-08-07T14:50:25;22.80;67.50
11762;DHT22;5938;47.098;15.474;2023-08-07T14:54:29;23.40;68.80
11762;DHT22;5938;47.098;15.474;2023-08-07T14:58:33;23.50;64.20
11762;DHT22;5938;47.098;15.474;2023-08-07T15:02:38;24.10;64.80
11762;DHT22;5938;47.098;15.474;2023-08-07T15:06:43;25.30;64.80
11762;DHT22;5938;47.098;15.474;2023-08-07T15:10:51;28.30;61.40
11762;DHT22;5938;47.098;15.474;2023-08-07T15:14:56;28.70;56.10
11762;DHT22;5938;47.098;15.474;2023-08-07T15:19:03;27.30;60.70
11762;DHT22;5938;47.098;15.474;2023-08-07T15:23:08;26.40;60.00
11762;DHT22;5938;47.098;15.474;2023-08-07T15:27:12;25.50;61.60
11762;DHT22;5938;47.098;15.474;2023-08-07T15:31:20;25.50;64.20
11762;DHT22;5938;47.098;15.474;2023-08-07T15:35:29;25.60;65.10
11762;DHT22;5938;47.098;15.474;2023-08-07T15:39:34;24.20;61.00
11762;DHT22;5938;47.098;15.474;2023-08-07T15:43:39;23.30;66.50
11762;DHT22;5938;47.098;15.474;2023-08-07T15:47:44;21.80;67.20
11762;DHT22;5938;47.098;15.474;2023-08-07T15:51:51;21.20;69.20
11762;DHT22;5938;47.098;15.474;2023-08-07T15:55:55;21.30;73.10
11762;DHT22;5938;47.098;15.474;2023-08-07T15:59:59;21.00;70.10
11762;DHT22;5938;47.098;15.474;2023-08-07T16:04:03;20.50;73.80
11762;DHT22;5938;47.098;15.474;2023-08-07T16:08:08;20.80;75.40
11762;DHT22;5938;47.098;15.474;2023-08-07T16:12:14;20.60;72.00
11762;DHT22;5938;47.098;15.474;2023-08-07T16:16:20;20.40;73.20
11762;DHT22;5938;47.098;15.474;2023-08-07T16:20:32;19.80;74.90
11762;DHT22;5938;47.098;15.474;2023-08-07T16:24:37;20.30;79.80
11762;DHT22;5938;47.098;15.474;2023-08-07T16:28:42;20.20;81.80
11762;DHT22;5938;47.098;15.474;2023-08-07T16:32:48;20.00;78.90
11762;DHT22;5938;47.098;15.474;2023-08-07T16:36:53;19.40;78.60
11762;DHT22;5938;47.098;15.474;2023-08-07T16:40:59;18.60;83.10
11762;DHT22;5938;47.098;15.474;2023-08-07T16:45:05;18.30;83.50
11762;DHT22;5938;47.098;15.474;2023-08-07T16:49:09;18.00;82.00
11762;DHT22;5938;47.098;15.474;2023-08-07T16:53:14;17.70;79.50
11762;DHT22;5938;47.098;15.474;2023-08-07T16:57:20;17.70;89.70
11762;DHT22;5938;47.098;15.474;2023-08-07T17:01:24;17.50;90.50
11762;DHT22;5938;47.098;15.474;2023-08-07T17:05:28;17.10;91.50
11762;DHT22;5938;47.098;15.474;2023-08-07T17:09:34;16.80;91.80
11762;DHT22;5938;47.098;15.474;2023-08-07T17:13:40;16.40;92.10
11762;DHT22;5938;47.098;15.474;2023-08-07T17:17:49;16.20;93.70
11762;DHT22;5938;47.098;15.474;2023-08-07T17:21:54;15.90;95.20
11762;DHT22;5938;47.098;15.474;2023-08-07T17:26:00;15.60;95.60
11762;DHT22;5938;47.098;15.474;2023-08-07T17:30:08;15.60;96.20
11762;DHT22;5938;47.098;15.474;2023-08-07T17:34:14;15.50;96.60
11762;DHT22;5938;47.098;15.474;2023-08-07T17:38:20;15.50;96.80
11762;DHT22;5938;47.098;15.474;2023-08-07T17:42:25;15.40;96.40
11762;DHT22;5938;47.098;15.474;2023-08-07T17:46:32;15.40;97.20
11762;DHT22;5938;47.098;15.474;2023-08-07T17:50:38;15.60;97.80
11762;DHT22;5938;47.098;15.474;2023-08-07T17:54:42;15.60;98.70
11762;DHT22;5938;47.098;15.474;2023-08-07T17:58:48;15.70;99.50
11762;DHT22;5938;47.098;15.474;2023-08-07T18:02:56;15.70;97.80
11762;DHT22;5938;47.098;15.474;2023-08-07T18:07:05;15.70;97.70
11762;DHT22;5938;47.098;15.474;2023-08-07T18:11:10;15.60;98.60
11762;DHT22;5938;47.098;15.474;2023-08-07T18:15:15;15.40;99.90
11762;DHT22;5938;47.098;15.474;2023-08-07T18:19:24;15.20;99.80
11762;DHT22;5938;47.098;15.474;2023-08-07T18:23:29;15.00;99.80
11762;DHT22;5938;47.098;15.474;2023-08-07T18:27:34;14.80;99.90
11762;DHT22;5938;47.098;15.474;2023-08-07T18:31:39;14.80;99.90
11762;DHT22;5938;47.098;15.474;2023-08-07T18:35:45;14.70;99.90
11762;DHT22;5938;47.098;15.474;2023-08-07T18:39:49;14.50;99.90
11762;DHT22;5938;47.098;15.474;2023-08-07T18:43:52;14.40;99.90
11762;DHT22;5938;47.098;15.474;2023-08-07T18:47:56;14.30;99.90
11762;DHT22;5938;47.098;15.474;2023-08-07T18:52:05;14.20;99.90
11762;DHT22;5938;47.098;15.474;2023-08-07T18:56:09;14.10;99.90
11762;DHT22;5938;47.098;15.474;2023-08-07T19:00:16;14.10;99.90
11762;DHT22;5938;47.098;15.474;2023-08-07T19:04:27;13.90;99.90
11762;DHT22;5938;47.098;15.474;2023-08-07T19:08:42;13.90;99.90
11762;DHT22;5938;47.098;15.474;2023-08-07T19:12:59;13.90;99.90
11762;DHT22;5938;47.098;15.474;2023-08-07T19:17:30;13.80;99.90
11762;DHT22;5938;47.098;15.474;2023-08-07T19:21:38;13.80;99.90
11762;DHT22;5938;47.098;15.474;2023-08-07T19:25:55;13.70;99.90
11762;DHT22;5938;47.098;15.474;2023-08-07T19:30:11;13.50;99.90
11762;DHT22;5938;47.098;15.474;2023-08-07T19:34:17;13.40;99.90
11762;DHT22;5938;47.098;15.474;2023-08-07T19:38:23;13.40;99.90
11762;DHT22;5938;47.098;15.474;2023-08-07T19:42:30;13.30;99.90
11762;DHT22;5938;47.098;15.474;2023-08-07T19:46:35;13.20;99.90
11762;DHT22;5938;47.098;15.474;2023-08-07T19:50:42;13.10;99.90
11762;DHT22;5938;47.098;15.474;2023-08-07T19:54:48;13.10;99.90
11762;DHT22;5938;47.098;15.474;2023-08-07T19:58:54;12.90;99.90
11762;DHT22;5938;47.098;15.474;2023-08-07T20:03:00;12.90;99.90
11762;DHT22;5938;47.098;15.474;2023-08-07T20:07:08;12.70;99.90
11762;DHT22;5938;47.098;15.474;2023-08-07T20:11:16;12.60;99.90
11762;DHT22;5938;47.098;15.474;2023-08-07T20:15:25;12.50;99.90
11762;DHT22;5938;47.098;15.474;2023-08-07T20:19:31;12.50;99.90
11762;DHT22;5938;47.098;15.474;2023-08-07T20:23:36;12.30;99.90
11762;DHT22;5938;47.098;15.474;2023-08-07T20:27:42;12.20;99.90
11762;DHT22;5938;47.098;15.474;2023-08-07T20:32:05;12.20;99.90
11762;DHT22;5938;47.098;15.474;2023-08-07T20:36:13;12.00;99.90
11762;DHT22;5938;47.098;15.474;2023-08-07T20:40:25;11.90;99.90
11762;DHT22;5938;47.098;15.474;2023-08-07T20:44:30;11.80;99.90
11762;DHT22;5938;47.098;15.474;2023-08-07T20:48:37;11.60;99.90
11762;DHT22;5938;47.098;15.474;2023-08-07T20:52:42;11.50;99.90
11762;DHT22;5938;47.098;15.474;2023-08-07T20:56:47;11.40;99.90
11762;DHT22;5938;47.098;15.474;2023-08-07T21:00:50;11.30;99.90
11762;DHT22;5938;47.098;15.474;2023-08-07T21:04:55;11.10;99.90
11762;DHT22;5938;47.098;15.474;2023-08-07T21:08:59;11.00;99.90
11762;DHT22;5938;47.098;15.474;2023-08-07T21:13:03;10.90;99.90
11762;DHT22;5938;47.098;15.474;2023-08-07T21:17:07;10.80;99.90
11762;DHT22;5938;47.098;15.474;2023-08-07T21:21:12;10.70;99.90
11762;DHT22;5938;47.098;15.474;2023-08-07T21:25:15;10.70;99.90
11762;DHT22;5938;47.098;15.474;2023-08-07T21:29:19;10.60;99.90
11762;DHT22;5938;47.098;15.474;2023-08-07T21:33:23;10.50;99.90
11762;DHT22;5938;47.098;15.474;2023-08-07T21:37:31;10.40;99.90
11762;DHT22;5938;47.098;15.474;2023-08-07T21:41:34;10.30;99.90
11762;DHT22;5938;47.098;15.474;2023-08-07T21:45:39;10.30;99.90
11762;DHT22;5938;47.098;15.474;2023-08-07T21:49:45;10.20;99.90
11762;DHT22;5938;47.098;15.474;2023-08-07T21:53:50;10.20;99.90
11762;DHT22;5938;47.098;15.474;2023-08-07T21:57:54;10.20;99.90
11762;DHT22;5938;47.098;15.474;2023-08-07T22:01:57;10.10;99.90
11762;DHT22;5938;47.098;15.474;2023-08-07T22:06:02;10.10;99.90
11762;DHT22;5938;47.098;15.474;2023-08-07T22:10:08;10.00;99.90
11762;DHT22;5938;47.098;15.474;2023-08-07T22:14:12;10.00;99.90
11762;DHT22;5938;47.098;15.474;2023-08-07T22:18:17;10.00;99.90
11762;DHT22;5938;47.098;15.474;2023-08-07T22:22:21;10.00;99.90
11762;DHT22;5938;47.098;15.474;2023-08-07T22:26:26;9.90;99.90
11762;DHT22;5938;47.098;15.474;2023-08-07T22:30:29;9.90;99.90
11762;DHT22;5938;47.098;15.474;2023-08-07T22:34:33;9.90;99.90
11762;DHT22;5938;47.098;15.474;2023-08-07T22:38:37;9.90;99.90
11762;DHT22;5938;47.098;15.474;2023-08-07T22:42:42;9.90;99.90
11762;DHT22;5938;47.098;15.474;2023-08-07T22:46:46;9.80;99.90
11762;DHT22;5938;47.098;15.474;2023-08-07T22:50:50;9.90;99.90
11762;DHT22;5938;47.098;15.474;2023-08-07T22:54:54;10.00;99.90
11762;DHT22;5938;47.098;15.474;2023-08-07T22:58:59;10.00;99.90
11762;DHT22;5938;47.098;15.474;2023-08-07T23:03:03;10.10;99.90
11762;DHT22;5938;47.098;15.474;2023-08-07T23:07:07;10.10;99.90
11762;DHT22;5938;47.098;15.474;2023-08-07T23:11:11;9.90;99.90
11762;DHT22;5938;47.098;15.474;2023-08-07T23:15:16;9.80;99.90
11762;DHT22;5938;47.098;15.474;2023-08-07T23:19:20;9.70;99.90
11762;DHT22;5938;47.098;15.474;2023-08-07T23:23:24;9.70;99.90
11762;DHT22;5938;47.098;15.474;2023-08-07T23:27:27;9.70;99.90
11762;DHT22;5938;47.098;15.474;2023-08-07T23:31:33;9.60;99.90
11762;DHT22;5938;47.098;15.474;2023-08-07T23:35:37;9.50;99.90
11762;DHT22;5938;47.098;15.474;2023-08-07T23:39:41;9.50;99.90
11762;DHT22;5938;47.098;15.474;2023-08-07T23:43:44;9.40;99.90
11762;DHT22;5938;47.098;15.474;2023-08-07T23:47:49;9.40;99.90
11762;DHT22;5938;47.098;15.474;2023-08-07T23:51:53;9.30;99.90
11762;DHT22;5938;47.098;15.474;2023-08-07T23:55:57;9.30;99.90
